sensor_id;sensor_type;location;lat;lon;timestamp;P1;durP1;ratioP1;P2;durP2;ratioP2
55222;SDS011;41090;48.632;12.428;2022-12-07T00:00:47;10.03;;;9.03;;
55222;SDS011;41090;48.632;12.428;2022-12-07T00:03:13;9.40;;;8.40;;
55222;SDS011;41090;48.632;12.428;2022-12-07T00:05:38;10.03;;;9.03;;
55222;SDS011;41090;48.632;12.428;2022-12-07T00:08:03;10.07;;;9.07;;
55222;SDS011;41090;48.632;12.428;2022-12-07T00:10:28;9.90;;;8.90;;
55222;SDS011;41090;48.632;12.428;2022-12-07T00:12:54;9.60;;;8.60;;
55222;SDS011;41090;48.632;12.428;2022-12-07T00:15:19;8.77;;;7.97;;
55222;SDS011;41090;48.632;12.428;2022-12-07T00:17:44;7.93;;;7.17;;
55222;SDS011;41090;48.632;12.428;2022-12-07T00:20:09;8.50;;;7.70;;
55222;SDS011;41090;48.632;12.428;2022-12-07T00:22:37;10.77;;;8.53;;
55222;SDS011;41090;48.632;12.428;2022-12-07T00:25:02;9.00;;;8.10;;
55222;SDS011;41090;48.632;12.428;2022-12-07T00:27:27;8.40;;;7.60;;
55222;SDS011;41090;48.632;12.428;2022-12-07T00:29:53;9.50;;;8.53;;
55222;SDS011;41090;48.632;12.428;2022-12-07T00:32:18;9.37;;;8.47;;
55222;SDS011;41090;48.632;12.428;2022-12-07T00:34:43;9.47;;;8.47;;
55222;SDS011;41090;48.632;12.428;2022-12-07T00:37:08;9.00;;;8.17;;
55222;SDS011;41090;48.632;12.428;2022-12-07T00:39:34;9.00;;;7.87;;
55222;SDS011;41090;48.632;12.428;2022-12-07T00:41:59;8.50;;;7.70;;
55222;SDS011;41090;48.632;12.428;2022-12-07T00:44:24;8.97;;;8.07;;
55222;SDS011;41090;48.632;12.428;2022-12-07T00:46:49;8.73;;;7.93;;
55222;SDS011;41090;48.632;12.428;2022-12-07T00:49:15;8.83;;;7.93;;
55222;SDS011;41090;48.632;12.428;2022-12-07T00:51:40;8.60;;;7.70;;
55222;SDS011;41090;48.632;12.428;2022-12-07T00:54:05;9.47;;;8.30;;
55222;SDS011;41090;48.632;12.428;2022-12-07T00:56:30;8.90;;;8.00;;
55222;SDS011;41090;48.632;12.428;2022-12-07T00:58:56;8.40;;;7.60;;
55222;SDS011;41090;48.632;12.428;2022-12-07T01:01:22;8.63;;;7.80;;
55222;SDS011;41090;48.632;12.428;2022-12-07T01:03:48;8.47;;;7.67;;
55222;SDS011;41090;48.632;12.428;2022-12-07T01:06:16;8.63;;;7.83;;
55222;SDS011;41090;48.632;12.428;2022-12-07T01:08:42;8.30;;;7.47;;
55222;SDS011;41090;48.632;12.428;2022-12-07T01:11:08;8.33;;;7.50;;
55222;SDS011;41090;48.632;12.428;2022-12-07T01:13:34;8.43;;;7.63;;
55222;SDS011;41090;48.632;12.428;2022-12-07T01:16:00;8.57;;;7.83;;
55222;SDS011;41090;48.632;12.428;2022-12-07T01:18:27;8.87;;;8.00;;
55222;SDS011;41090;48.632;12.428;2022-12-07T01:23:31;8.70;;;7.90;;
55222;SDS011;41090;48.632;12.428;2022-12-07T01:25:57;8.47;;;7.67;;
55222;SDS011;41090;48.632;12.428;2022-12-07T01:28:23;10.23;;;8.37;;
55222;SDS011;41090;48.632;12.428;2022-12-07T01:30:58;8.87;;;8.07;;
55222;SDS011;41090;48.632;12.428;2022-12-07T01:33:23;8.80;;;7.90;;
55222;SDS011;41090;48.632;12.428;2022-12-07T01:35:50;9.23;;;8.37;;
55222;SDS011;41090;48.632;12.428;2022-12-07T01:38:15;8.90;;;8.00;;
55222;SDS011;41090;48.632;12.428;2022-12-07T01:40:40;9.13;;;8.23;;
55222;SDS011;41090;48.632;12.428;2022-12-07T01:43:13;8.73;;;7.93;;
55222;SDS011;41090;48.632;12.428;2022-12-07T01:45:40;8.90;;;8.00;;
55222;SDS011;41090;48.632;12.428;2022-12-07T01:48:07;8.37;;;7.57;;
55222;SDS011;41090;48.632;12.428;2022-12-07T01:50:33;9.07;;;8.27;;
55222;SDS011;41090;48.632;12.428;2022-12-07T01:52:59;8.43;;;7.63;;
55222;SDS011;41090;48.632;12.428;2022-12-07T01:55:26;8.50;;;7.70;;
55222;SDS011;41090;48.632;12.428;2022-12-07T01:57:52;8.33;;;7.63;;
55222;SDS011;41090;48.632;12.428;2022-12-07T02:00:18;8.80;;;8.00;;
55222;SDS011;41090;48.632;12.428;2022-12-07T02:02:46;8.90;;;8.03;;
55222;SDS011;41090;48.632;12.428;2022-12-07T02:05:12;8.67;;;7.83;;
55222;SDS011;41090;48.632;12.428;2022-12-07T02:07:38;8.23;;;7.43;;
55222;SDS011;41090;48.632;12.428;2022-12-07T02:10:16;8.97;;;8.17;;
55222;SDS011;41090;48.632;12.428;2022-12-07T02:12:42;9.40;;;8.50;;
55222;SDS011;41090;48.632;12.428;2022-12-07T02:15:09;9.10;;;8.20;;
55222;SDS011;41090;48.632;12.428;2022-12-07T02:27:52;8.63;;;7.83;;
55222;SDS011;41090;48.632;12.428;2022-12-07T02:30:21;9.40;;;8.50;;
55222;SDS011;41090;48.632;12.428;2022-12-07T02:32:53;8.37;;;7.63;;
55222;SDS011;41090;48.632;12.428;2022-12-07T02:35:34;9.47;;;8.57;;
55222;SDS011;41090;48.632;12.428;2022-12-07T02:38:25;9.63;;;8.63;;
55222;SDS011;41090;48.632;12.428;2022-12-07T02:40:52;9.07;;;8.27;;
55222;SDS011;41090;48.632;12.428;2022-12-07T02:43:26;11.07;;;9.10;;
55222;SDS011;41090;48.632;12.428;2022-12-07T02:45:52;9.53;;;8.63;;
55222;SDS011;41090;48.632;12.428;2022-12-07T02:48:20;9.50;;;8.60;;
55222;SDS011;41090;48.632;12.428;2022-12-07T02:50:49;9.03;;;8.23;;
55222;SDS011;41090;48.632;12.428;2022-12-07T02:58:53;9.30;;;8.40;;
55222;SDS011;41090;48.632;12.428;2022-12-07T03:01:47;10.50;;;9.50;;
55222;SDS011;41090;48.632;12.428;2022-12-07T03:07:05;10.03;;;9.03;;
55222;SDS011;41090;48.632;12.428;2022-12-07T03:09:38;10.40;;;9.20;;
55222;SDS011;41090;48.632;12.428;2022-12-07T03:12:09;11.30;;;10.20;;
55222;SDS011;41090;48.632;12.428;2022-12-07T03:14:52;10.80;;;9.80;;
55222;SDS011;41090;48.632;12.428;2022-12-07T03:17:21;9.63;;;8.73;;
55222;SDS011;41090;48.632;12.428;2022-12-07T03:19:48;11.20;;;10.10;;
55222;SDS011;41090;48.632;12.428;2022-12-07T03:22:16;12.67;;;10.27;;
55222;SDS011;41090;48.632;12.428;2022-12-07T03:24:47;11.80;;;10.70;;
55222;SDS011;41090;48.632;12.428;2022-12-07T03:28:01;11.30;;;10.20;;
55222;SDS011;41090;48.632;12.428;2022-12-07T03:30:06;11.37;;;10.27;;
55222;SDS011;41090;48.632;12.428;2022-12-07T03:34:59;11.47;;;10.30;;
55222;SDS011;41090;48.632;12.428;2022-12-07T03:37:30;11.67;;;10.47;;
55222;SDS011;41090;48.632;12.428;2022-12-07T03:42:40;11.97;;;10.77;;
55222;SDS011;41090;48.632;12.428;2022-12-07T03:45:06;11.53;;;10.43;;
55222;SDS011;41090;48.632;12.428;2022-12-07T03:50:02;11.77;;;10.67;;
55222;SDS011;41090;48.632;12.428;2022-12-07T03:55:14;12.37;;;11.17;;
55222;SDS011;41090;48.632;12.428;2022-12-07T03:57:42;12.17;;;11.07;;
55222;SDS011;41090;48.632;12.428;2022-12-07T04:00:09;13.37;;;12.07;;
55222;SDS011;41090;48.632;12.428;2022-12-07T04:02:35;13.33;;;12.03;;
55222;SDS011;41090;48.632;12.428;2022-12-07T04:05:01;13.40;;;12.10;;
55222;SDS011;41090;48.632;12.428;2022-12-07T04:07:26;13.20;;;11.90;;
55222;SDS011;41090;48.632;12.428;2022-12-07T04:09:52;13.80;;;12.40;;
55222;SDS011;41090;48.632;12.428;2022-12-07T04:12:19;13.50;;;12.20;;
55222;SDS011;41090;48.632;12.428;2022-12-07T04:14:44;13.07;;;11.77;;
55222;SDS011;41090;48.632;12.428;2022-12-07T04:17:10;13.57;;;12.27;;
55222;SDS011;41090;48.632;12.428;2022-12-07T04:19:35;13.03;;;11.60;;
55222;SDS011;41090;48.632;12.428;2022-12-07T04:22:01;14.30;;;12.80;;
55222;SDS011;41090;48.632;12.428;2022-12-07T04:24:27;13.53;;;12.23;;
55222;SDS011;41090;48.632;12.428;2022-12-07T04:26:52;13.67;;;12.37;;
55222;SDS011;41090;48.632;12.428;2022-12-07T04:29:17;13.87;;;12.40;;
55222;SDS011;41090;48.632;12.428;2022-12-07T04:31:43;13.80;;;12.40;;
55222;SDS011;41090;48.632;12.428;2022-12-07T04:34:08;13.00;;;11.63;;
55222;SDS011;41090;48.632;12.428;2022-12-07T04:36:34;12.83;;;11.53;;
55222;SDS011;41090;48.632;12.428;2022-12-07T04:38:59;13.10;;;11.80;;
55222;SDS011;41090;48.632;12.428;2022-12-07T04:41:25;13.43;;;12.17;;
55222;SDS011;41090;48.632;12.428;2022-12-07T04:43:54;13.63;;;12.23;;
55222;SDS011;41090;48.632;12.428;2022-12-07T04:46:20;13.10;;;11.80;;
55222;SDS011;41090;48.632;12.428;2022-12-07T04:48:45;12.60;;;11.40;;
55222;SDS011;41090;48.632;12.428;2022-12-07T04:51:10;14.13;;;12.73;;
55222;SDS011;41090;48.632;12.428;2022-12-07T04:53:35;13.87;;;12.07;;
55222;SDS011;41090;48.632;12.428;2022-12-07T04:56:01;13.40;;;12.10;;
55222;SDS011;41090;48.632;12.428;2022-12-07T04:58:26;14.10;;;12.67;;
55222;SDS011;41090;48.632;12.428;2022-12-07T05:00:53;21.80;;;17.87;;
55222;SDS011;41090;48.632;12.428;2022-12-07T05:03:18;14.33;;;12.93;;
55222;SDS011;41090;48.632;12.428;2022-12-07T05:05:43;14.47;;;13.07;;
55222;SDS011;41090;48.632;12.428;2022-12-07T05:08:09;13.70;;;12.40;;
55222;SDS011;41090;48.632;12.428;2022-12-07T05:10:34;14.23;;;12.83;;
55222;SDS011;41090;48.632;12.428;2022-12-07T05:12:59;14.43;;;12.93;;
55222;SDS011;41090;48.632;12.428;2022-12-07T05:15:24;14.00;;;12.63;;
55222;SDS011;41090;48.632;12.428;2022-12-07T05:17:50;14.27;;;12.27;;
55222;SDS011;41090;48.632;12.428;2022-12-07T05:20:26;14.73;;;13.17;;
55222;SDS011;41090;48.632;12.428;2022-12-07T05:22:51;14.57;;;13.17;;
55222;SDS011;41090;48.632;12.428;2022-12-07T05:27:44;14.33;;;12.93;;
55222;SDS011;41090;48.632;12.428;2022-12-07T05:30:10;16.03;;;13.90;;
55222;SDS011;41090;48.632;12.428;2022-12-07T05:32:35;14.80;;;13.30;;
55222;SDS011;41090;48.632;12.428;2022-12-07T05:35:00;15.27;;;13.67;;
55222;SDS011;41090;48.632;12.428;2022-12-07T05:37:25;15.93;;;14.07;;
55222;SDS011;41090;48.632;12.428;2022-12-07T05:39:51;15.97;;;14.33;;
55222;SDS011;41090;48.632;12.428;2022-12-07T05:42:16;14.60;;;13.10;;
55222;SDS011;41090;48.632;12.428;2022-12-07T05:44:43;16.43;;;14.40;;
55222;SDS011;41090;48.632;12.428;2022-12-07T05:47:08;15.73;;;14.13;;
55222;SDS011;41090;48.632;12.428;2022-12-07T05:49:34;16.10;;;14.40;;
55222;SDS011;41090;48.632;12.428;2022-12-07T05:51:59;17.37;;;15.57;;
55222;SDS011;41090;48.632;12.428;2022-12-07T05:54:24;15.37;;;13.77;;
55222;SDS011;41090;48.632;12.428;2022-12-07T05:56:50;17.07;;;14.77;;
55222;SDS011;41090;48.632;12.428;2022-12-07T05:59:15;18.70;;;16.70;;
55222;SDS011;41090;48.632;12.428;2022-12-07T06:01:57;16.13;;;14.43;;
55222;SDS011;41090;48.632;12.428;2022-12-07T06:04:23;17.37;;;15.47;;
55222;SDS011;41090;48.632;12.428;2022-12-07T06:06:49;17.40;;;15.60;;
55222;SDS011;41090;48.632;12.428;2022-12-07T06:09:15;18.17;;;14.80;;
55222;SDS011;41090;48.632;12.428;2022-12-07T06:11:41;17.37;;;14.90;;
55222;SDS011;41090;48.632;12.428;2022-12-07T06:14:25;16.30;;;14.20;;
55222;SDS011;41090;48.632;12.428;2022-12-07T06:16:50;16.57;;;14.77;;
55222;SDS011;41090;48.632;12.428;2022-12-07T06:19:15;15.87;;;14.27;;
55222;SDS011;41090;48.632;12.428;2022-12-07T06:21:41;17.50;;;15.60;;
55222;SDS011;41090;48.632;12.428;2022-12-07T06:24:06;17.27;;;15.40;;
55222;SDS011;41090;48.632;12.428;2022-12-07T06:26:32;18.93;;;15.73;;
55222;SDS011;41090;48.632;12.428;2022-12-07T06:28:57;18.30;;;16.27;;
55222;SDS011;41090;48.632;12.428;2022-12-07T06:31:22;16.40;;;14.73;;
55222;SDS011;41090;48.632;12.428;2022-12-07T06:33:47;18.07;;;15.37;;
55222;SDS011;41090;48.632;12.428;2022-12-07T06:36:13;17.07;;;15.27;;
55222;SDS011;41090;48.632;12.428;2022-12-07T06:38:38;17.90;;;15.83;;
55222;SDS011;41090;48.632;12.428;2022-12-07T06:41:03;18.53;;;15.97;;
55222;SDS011;41090;48.632;12.428;2022-12-07T06:43:29;18.70;;;16.00;;
55222;SDS011;41090;48.632;12.428;2022-12-07T06:45:56;16.70;;;14.90;;
55222;SDS011;41090;48.632;12.428;2022-12-07T06:48:21;16.90;;;15.10;;
55222;SDS011;41090;48.632;12.428;2022-12-07T06:50:47;17.60;;;14.57;;
55222;SDS011;41090;48.632;12.428;2022-12-07T06:53:12;15.93;;;14.23;;
55222;SDS011;41090;48.632;12.428;2022-12-07T06:55:37;17.77;;;15.10;;
55222;SDS011;41090;48.632;12.428;2022-12-07T06:58:03;18.47;;;15.60;;
55222;SDS011;41090;48.632;12.428;2022-12-07T07:00:28;18.33;;;15.73;;
55222;SDS011;41090;48.632;12.428;2022-12-07T07:02:53;18.70;;;16.60;;
55222;SDS011;41090;48.632;12.428;2022-12-07T07:05:19;20.57;;;16.30;;
55222;SDS011;41090;48.632;12.428;2022-12-07T07:07:46;18.33;;;15.43;;
55222;SDS011;41090;48.632;12.428;2022-12-07T07:10:13;18.33;;;16.27;;
55222;SDS011;41090;48.632;12.428;2022-12-07T07:12:40;17.33;;;15.23;;
55222;SDS011;41090;48.632;12.428;2022-12-07T07:15:05;18.10;;;16.13;;
55222;SDS011;41090;48.632;12.428;2022-12-07T07:17:30;19.17;;;16.60;;
55222;SDS011;41090;48.632;12.428;2022-12-07T07:19:56;18.83;;;16.83;;
55222;SDS011;41090;48.632;12.428;2022-12-07T07:22:21;17.77;;;15.87;;
55222;SDS011;41090;48.632;12.428;2022-12-07T07:24:47;17.97;;;16.07;;
55222;SDS011;41090;48.632;12.428;2022-12-07T07:27:12;18.07;;;16.13;;
55222;SDS011;41090;48.632;12.428;2022-12-07T07:29:38;16.83;;;15.03;;
55222;SDS011;41090;48.632;12.428;2022-12-07T07:32:03;18.20;;;15.50;;
55222;SDS011;41090;48.632;12.428;2022-12-07T07:34:28;18.43;;;16.53;;
55222;SDS011;41090;48.632;12.428;2022-12-07T07:36:53;17.57;;;15.53;;
55222;SDS011;41090;48.632;12.428;2022-12-07T07:39:18;16.93;;;15.23;;
55222;SDS011;41090;48.632;12.428;2022-12-07T07:41:44;17.10;;;15.40;;
55222;SDS011;41090;48.632;12.428;2022-12-07T07:44:17;16.83;;;15.03;;
55222;SDS011;41090;48.632;12.428;2022-12-07T07:46:42;16.23;;;14.50;;
55222;SDS011;41090;48.632;12.428;2022-12-07T07:49:08;17.03;;;15.23;;
55222;SDS011;41090;48.632;12.428;2022-12-07T07:51:34;16.33;;;14.63;;
55222;SDS011;41090;48.632;12.428;2022-12-07T07:54:00;16.73;;;15.07;;
55222;SDS011;41090;48.632;12.428;2022-12-07T07:56:25;16.00;;;14.30;;
55222;SDS011;41090;48.632;12.428;2022-12-07T07:58:53;15.93;;;14.33;;
55222;SDS011;41090;48.632;12.428;2022-12-07T08:01:21;17.03;;;15.23;;
55222;SDS011;41090;48.632;12.428;2022-12-07T08:03:46;16.30;;;14.53;;
55222;SDS011;41090;48.632;12.428;2022-12-07T08:06:11;16.60;;;14.40;;
55222;SDS011;41090;48.632;12.428;2022-12-07T08:08:37;16.87;;;15.07;;
55222;SDS011;41090;48.632;12.428;2022-12-07T08:11:04;15.90;;;14.30;;
55222;SDS011;41090;48.632;12.428;2022-12-07T08:13:32;16.20;;;14.60;;
55222;SDS011;41090;48.632;12.428;2022-12-07T08:15:57;19.17;;;15.87;;
55222;SDS011;41090;48.632;12.428;2022-12-07T08:18:23;16.67;;;14.97;;
55222;SDS011;41090;48.632;12.428;2022-12-07T08:20:48;18.20;;;15.77;;
55222;SDS011;41090;48.632;12.428;2022-12-07T08:23:13;17.47;;;15.57;;
55222;SDS011;41090;48.632;12.428;2022-12-07T08:25:38;19.93;;;16.93;;
55222;SDS011;41090;48.632;12.428;2022-12-07T08:28:04;18.83;;;16.77;;
55222;SDS011;41090;48.632;12.428;2022-12-07T08:30:29;17.47;;;15.57;;
55222;SDS011;41090;48.632;12.428;2022-12-07T08:32:55;18.43;;;16.53;;
55222;SDS011;41090;48.632;12.428;2022-12-07T08:35:20;18.93;;;16.00;;
55222;SDS011;41090;48.632;12.428;2022-12-07T08:37:46;17.97;;;16.03;;
55222;SDS011;41090;48.632;12.428;2022-12-07T08:40:11;18.20;;;16.30;;
55222;SDS011;41090;48.632;12.428;2022-12-07T08:42:40;18.77;;;16.77;;
55222;SDS011;41090;48.632;12.428;2022-12-07T08:45:06;17.00;;;15.13;;
55222;SDS011;41090;48.632;12.428;2022-12-07T08:47:32;17.37;;;15.17;;
55222;SDS011;41090;48.632;12.428;2022-12-07T08:49:58;16.40;;;14.67;;
55222;SDS011;41090;48.632;12.428;2022-12-07T08:52:28;16.37;;;14.67;;
55222;SDS011;41090;48.632;12.428;2022-12-07T08:54:54;15.20;;;13.60;;
55222;SDS011;41090;48.632;12.428;2022-12-07T08:57:20;14.30;;;12.90;;
55222;SDS011;41090;48.632;12.428;2022-12-07T08:59:46;14.10;;;12.80;;
55222;SDS011;41090;48.632;12.428;2022-12-07T09:02:12;14.30;;;12.90;;
55222;SDS011;41090;48.632;12.428;2022-12-07T09:04:41;13.90;;;12.50;;
55222;SDS011;41090;48.632;12.428;2022-12-07T09:07:06;14.40;;;13.00;;
55222;SDS011;41090;48.632;12.428;2022-12-07T09:09:32;15.53;;;12.87;;
55222;SDS011;41090;48.632;12.428;2022-12-07T09:11:57;14.70;;;13.23;;
55222;SDS011;41090;48.632;12.428;2022-12-07T09:14:22;15.93;;;14.40;;
55222;SDS011;41090;48.632;12.428;2022-12-07T09:16:48;16.63;;;14.87;;
55222;SDS011;41090;48.632;12.428;2022-12-07T09:19:14;17.20;;;15.40;;
55222;SDS011;41090;48.632;12.428;2022-12-07T09:21:40;15.90;;;14.30;;
55222;SDS011;41090;48.632;12.428;2022-12-07T09:24:06;15.27;;;13.77;;
55222;SDS011;41090;48.632;12.428;2022-12-07T09:26:32;20.40;;;18.30;;
55222;SDS011;41090;48.632;12.428;2022-12-07T09:28:57;15.63;;;14.13;;
55222;SDS011;41090;48.632;12.428;2022-12-07T09:31:22;14.60;;;13.10;;
55222;SDS011;41090;48.632;12.428;2022-12-07T09:33:52;14.07;;;12.60;;
55222;SDS011;41090;48.632;12.428;2022-12-07T09:36:17;16.13;;;14.47;;
55222;SDS011;41090;48.632;12.428;2022-12-07T09:38:48;14.23;;;12.83;;
55222;SDS011;41090;48.632;12.428;2022-12-07T09:41:14;13.63;;;12.23;;
55222;SDS011;41090;48.632;12.428;2022-12-07T09:43:41;13.70;;;12.30;;
55222;SDS011;41090;48.632;12.428;2022-12-07T09:46:08;14.63;;;13.27;;
55222;SDS011;41090;48.632;12.428;2022-12-07T09:48:37;13.97;;;12.63;;
55222;SDS011;41090;48.632;12.428;2022-12-07T09:51:11;14.50;;;12.63;;
55222;SDS011;41090;48.632;12.428;2022-12-07T09:53:38;13.13;;;11.83;;
55222;SDS011;41090;48.632;12.428;2022-12-07T09:56:13;12.23;;;11.13;;
55222;SDS011;41090;48.632;12.428;2022-12-07T09:58:39;13.93;;;12.70;;
55222;SDS011;41090;48.632;12.428;2022-12-07T10:03:37;12.57;;;11.47;;
55222;SDS011;41090;48.632;12.428;2022-12-07T10:06:03;12.00;;;11.00;;
55222;SDS011;41090;48.632;12.428;2022-12-07T10:08:29;12.10;;;11.00;;
55222;SDS011;41090;48.632;12.428;2022-12-07T10:10:56;11.73;;;10.63;;
55222;SDS011;41090;48.632;12.428;2022-12-07T10:13:33;13.00;;;11.87;;
55222;SDS011;41090;48.632;12.428;2022-12-07T10:15:59;12.47;;;11.27;;
55222;SDS011;41090;48.632;12.428;2022-12-07T10:18:28;11.73;;;10.73;;
55222;SDS011;41090;48.632;12.428;2022-12-07T10:23:28;11.27;;;10.27;;
55222;SDS011;41090;48.632;12.428;2022-12-07T10:25:53;11.60;;;10.50;;
55222;SDS011;41090;48.632;12.428;2022-12-07T10:28:20;11.67;;;10.60;;
55222;SDS011;41090;48.632;12.428;2022-12-07T10:33:33;11.40;;;10.40;;
55222;SDS011;41090;48.632;12.428;2022-12-07T10:36:00;11.40;;;10.40;;
55222;SDS011;41090;48.632;12.428;2022-12-07T10:38:26;11.13;;;10.13;;
55222;SDS011;41090;48.632;12.428;2022-12-07T10:41:05;11.47;;;10.47;;
55222;SDS011;41090;48.632;12.428;2022-12-07T10:43:31;12.00;;;10.30;;
55222;SDS011;41090;48.632;12.428;2022-12-07T10:54:11;10.93;;;9.83;;
55222;SDS011;41090;48.632;12.428;2022-12-07T10:59:24;11.90;;;10.70;;
55222;SDS011;41090;48.632;12.428;2022-12-07T11:01:57;12.13;;;10.93;;
55222;SDS011;41090;48.632;12.428;2022-12-07T11:21:58;11.10;;;10.00;;
55222;SDS011;41090;48.632;12.428;2022-12-07T11:24:27;11.73;;;10.47;;
55222;SDS011;41090;48.632;12.428;2022-12-07T11:32:38;15.77;;;13.47;;
55222;SDS011;41090;48.632;12.428;2022-12-07T11:37:13;13.40;;;12.00;;
55222;SDS011;41090;48.632;12.428;2022-12-07T11:42:36;26.17;;;20.40;;
55222;SDS011;41090;48.632;12.428;2022-12-07T11:45:14;16.43;;;13.77;;
55222;SDS011;41090;48.632;12.428;2022-12-07T11:50:32;13.30;;;11.50;;
55222;SDS011;41090;48.632;12.428;2022-12-07T11:52:58;13.53;;;12.03;;
55222;SDS011;41090;48.632;12.428;2022-12-07T11:57:54;12.03;;;10.77;;
55222;SDS011;41090;48.632;12.428;2022-12-07T12:00:22;12.50;;;11.20;;
55222;SDS011;41090;48.632;12.428;2022-12-07T12:03:09;13.80;;;12.13;;
55222;SDS011;41090;48.632;12.428;2022-12-07T12:05:32;15.50;;;13.93;;
55222;SDS011;41090;48.632;12.428;2022-12-07T12:08:18;16.57;;;13.50;;
55222;SDS011;41090;48.632;12.428;2022-12-07T12:13:23;14.83;;;13.23;;
55222;SDS011;41090;48.632;12.428;2022-12-07T12:21:08;12.93;;;11.63;;
55222;SDS011;41090;48.632;12.428;2022-12-07T12:26:01;12.87;;;11.57;;
55222;SDS011;41090;48.632;12.428;2022-12-07T12:33:48;12.13;;;10.83;;
55222;SDS011;41090;48.632;12.428;2022-12-07T12:39:18;9.80;;;8.80;;
55222;SDS011;41090;48.632;12.428;2022-12-07T12:51:43;8.63;;;7.33;;
55222;SDS011;41090;48.632;12.428;2022-12-07T12:54:14;8.77;;;7.57;;
55222;SDS011;41090;48.632;12.428;2022-12-07T12:59:24;8.30;;;7.47;;
55222;SDS011;41090;48.632;12.428;2022-12-07T13:01:54;8.97;;;8.07;;
55222;SDS011;41090;48.632;12.428;2022-12-07T13:06:45;9.80;;;8.47;;
55222;SDS011;41090;48.632;12.428;2022-12-07T13:09:20;9.20;;;8.27;;
55222;SDS011;41090;48.632;12.428;2022-12-07T13:11:47;10.17;;;9.07;;
55222;SDS011;41090;48.632;12.428;2022-12-07T13:19:58;10.17;;;8.17;;
55222;SDS011;41090;48.632;12.428;2022-12-07T13:24:59;9.10;;;8.07;;
55222;SDS011;41090;48.632;12.428;2022-12-07T13:27:27;10.97;;;8.90;;
55222;SDS011;41090;48.632;12.428;2022-12-07T13:29:52;10.77;;;8.93;;
55222;SDS011;41090;48.632;12.428;2022-12-07T13:32:24;9.97;;;8.90;;
55222;SDS011;41090;48.632;12.428;2022-12-07T13:34:50;11.13;;;8.97;;
55222;SDS011;41090;48.632;12.428;2022-12-07T13:37:28;10.67;;;8.77;;
55222;SDS011;41090;48.632;12.428;2022-12-07T13:39:58;12.70;;;8.57;;
55222;SDS011;41090;48.632;12.428;2022-12-07T13:44:52;10.50;;;9.10;;
55222;SDS011;41090;48.632;12.428;2022-12-07T13:47:36;11.07;;;8.70;;
55222;SDS011;41090;48.632;12.428;2022-12-07T13:50:51;10.77;;;9.23;;
55222;SDS011;41090;48.632;12.428;2022-12-07T13:52:49;16.07;;;12.90;;
55222;SDS011;41090;48.632;12.428;2022-12-07T13:55:15;11.50;;;9.50;;
55222;SDS011;41090;48.632;12.428;2022-12-07T13:57:40;10.23;;;8.73;;
55222;SDS011;41090;48.632;12.428;2022-12-07T14:00:13;10.80;;;8.90;;
55222;SDS011;41090;48.632;12.428;2022-12-07T14:02:53;12.37;;;10.63;;
55222;SDS011;41090;48.632;12.428;2022-12-07T14:05:25;12.87;;;8.90;;
55222;SDS011;41090;48.632;12.428;2022-12-07T14:10:29;11.33;;;10.13;;
55222;SDS011;41090;48.632;12.428;2022-12-07T14:12:55;11.07;;;9.87;;
55222;SDS011;41090;48.632;12.428;2022-12-07T14:15:26;10.87;;;9.43;;
55222;SDS011;41090;48.632;12.428;2022-12-07T14:17:52;11.30;;;10.03;;
55222;SDS011;41090;48.632;12.428;2022-12-07T14:20:32;12.67;;;9.43;;
55222;SDS011;41090;48.632;12.428;2022-12-07T14:22:57;12.20;;;9.47;;
55222;SDS011;41090;48.632;12.428;2022-12-07T14:25:24;11.73;;;9.60;;
55222;SDS011;41090;48.632;12.428;2022-12-07T14:27:57;12.60;;;9.43;;
55222;SDS011;41090;48.632;12.428;2022-12-07T14:30:32;11.23;;;8.37;;
55222;SDS011;41090;48.632;12.428;2022-12-07T14:32:59;11.80;;;10.03;;
55222;SDS011;41090;48.632;12.428;2022-12-07T14:35:25;10.90;;;8.63;;
55222;SDS011;41090;48.632;12.428;2022-12-07T14:37:51;10.70;;;8.63;;
55222;SDS011;41090;48.632;12.428;2022-12-07T14:40:23;11.03;;;9.63;;
55222;SDS011;41090;48.632;12.428;2022-12-07T14:42:50;10.57;;;9.00;;
55222;SDS011;41090;48.632;12.428;2022-12-07T14:45:17;12.20;;;10.03;;
55222;SDS011;41090;48.632;12.428;2022-12-07T14:47:43;10.90;;;9.57;;
55222;SDS011;41090;48.632;12.428;2022-12-07T14:50:10;11.53;;;9.73;;
55222;SDS011;41090;48.632;12.428;2022-12-07T14:52:36;12.83;;;10.33;;
55222;SDS011;41090;48.632;12.428;2022-12-07T14:55:01;11.07;;;9.60;;
55222;SDS011;41090;48.632;12.428;2022-12-07T14:57:26;14.17;;;11.10;;
55222;SDS011;41090;48.632;12.428;2022-12-07T14:59:52;12.50;;;9.90;;
55222;SDS011;41090;48.632;12.428;2022-12-07T15:02:17;11.13;;;9.60;;
55222;SDS011;41090;48.632;12.428;2022-12-07T15:04:42;11.50;;;9.50;;
55222;SDS011;41090;48.632;12.428;2022-12-07T15:07:41;10.43;;;9.33;;
55222;SDS011;41090;48.632;12.428;2022-12-07T15:09:59;10.93;;;9.63;;
55222;SDS011;41090;48.632;12.428;2022-12-07T15:12:24;9.57;;;8.57;;
55222;SDS011;41090;48.632;12.428;2022-12-07T15:14:50;11.20;;;10.10;;
55222;SDS011;41090;48.632;12.428;2022-12-07T15:17:15;12.37;;;11.13;;
55222;SDS011;41090;48.632;12.428;2022-12-07T15:19:40;11.30;;;10.10;;
55222;SDS011;41090;48.632;12.428;2022-12-07T15:22:05;10.27;;;8.90;;
55222;SDS011;41090;48.632;12.428;2022-12-07T15:24:31;9.33;;;8.27;;
55222;SDS011;41090;48.632;12.428;2022-12-07T15:26:56;11.20;;;10.10;;
55222;SDS011;41090;48.632;12.428;2022-12-07T15:31:59;10.90;;;8.77;;
55222;SDS011;41090;48.632;12.428;2022-12-07T15:34:25;11.50;;;9.07;;
55222;SDS011;41090;48.632;12.428;2022-12-07T15:36:50;12.77;;;9.03;;
55222;SDS011;41090;48.632;12.428;2022-12-07T15:39:15;10.30;;;8.80;;
55222;SDS011;41090;48.632;12.428;2022-12-07T15:41:41;11.93;;;9.63;;
55222;SDS011;41090;48.632;12.428;2022-12-07T15:44:08;11.87;;;9.23;;
55222;SDS011;41090;48.632;12.428;2022-12-07T15:46:52;12.93;;;11.13;;
55222;SDS011;41090;48.632;12.428;2022-12-07T15:49:18;17.50;;;15.37;;
55222;SDS011;41090;48.632;12.428;2022-12-07T15:51:43;13.73;;;11.53;;
55222;SDS011;41090;48.632;12.428;2022-12-07T15:54:19;13.93;;;11.40;;
55222;SDS011;41090;48.632;12.428;2022-12-07T15:56:45;13.27;;;10.63;;
55222;SDS011;41090;48.632;12.428;2022-12-07T15:59:10;13.00;;;11.00;;
55222;SDS011;41090;48.632;12.428;2022-12-07T16:01:35;12.27;;;11.00;;
55222;SDS011;41090;48.632;12.428;2022-12-07T16:04:00;11.37;;;9.67;;
55222;SDS011;41090;48.632;12.428;2022-12-07T16:06:26;12.77;;;10.63;;
55222;SDS011;41090;48.632;12.428;2022-12-07T16:08:51;12.90;;;11.47;;
55222;SDS011;41090;48.632;12.428;2022-12-07T16:11:17;10.60;;;9.50;;
55222;SDS011;41090;48.632;12.428;2022-12-07T16:13:42;13.70;;;10.80;;
55222;SDS011;41090;48.632;12.428;2022-12-07T16:16:09;10.30;;;9.23;;
55222;SDS011;41090;48.632;12.428;2022-12-07T16:18:35;12.27;;;10.30;;
55222;SDS011;41090;48.632;12.428;2022-12-07T16:21:02;12.13;;;9.97;;
55222;SDS011;41090;48.632;12.428;2022-12-07T16:23:27;10.93;;;8.87;;
55222;SDS011;41090;48.632;12.428;2022-12-07T16:25:53;12.17;;;10.43;;
55222;SDS011;41090;48.632;12.428;2022-12-07T16:28:18;10.60;;;9.50;;
55222;SDS011;41090;48.632;12.428;2022-12-07T16:30:43;11.83;;;10.07;;
55222;SDS011;41090;48.632;12.428;2022-12-07T16:33:09;13.97;;;10.13;;